Huvudsida
METAR-TAF:

METAR-TAF

Flygplatser :

Kastrups flygplats

Köpenhamn, Danmark

latitud: 55-37N, longitud: 012-39E, höjd: 5 m

Aktuellt väderrapport

Denna rapport gjordes för 38 minuter sedan, klockan 16:20 UTC
Vind 12 kt från nord/nordväst, varierande mellan nordväst och nord
Temperatur 8°C
Fuktighet 61%
Tryck 1017 hPa
Sikt 10 km eller mer

METAR: EKCH 251620Z AUTO 34012KT 310V010 9999NDV NCD 08/01 Q1017 NOSIG

Tid: 17:58 (16:58 UTC)

Väderprognos

Denna rapport gjordes för 5 timmar och 57 minuter sedan, klockan 11:01 UTC
Prognos gäller från 25 kl. 12 UTC till 26 kl. 12 UTC
Vind 12 kt från nord
Sikt 10 km eller mer
Brutna moln på en höjd av 2000 ft
Blir
från 25 kl. 22 UTC till 25 kl. 24 UTC
Vind 10 kt från väst
Blir
från 26 kl. 05 UTC till 26 kl. 08 UTC
Vind 18 kt från nord/nordväst

TAF: EKCH 251101Z 2512/2612 36012KT 9999 BKN020 BECMG 2522/2524 27010KT BECMG 2605/2608 34018KT

Aktuella väderrapporter och prognoser från 4000 flygplatser (METAR- och TAF-rapporter).

De tillgängliga stationerna syns som gula och röda prickar på kartan.

För musen över prickarna för att se namnen på stationerna.

Klicka sedan för att få väderrapporter och prognoser.

För att ändra kartan: Klicka på de gröna knapparna med ett svart kors på för att zooma in; den gröna knappen med ett streck på för att zooma ut; eller på de gröna pilarna för angränsande kartor.


METAR-TAF: